createdAt,value
2019-01-27T00:02:37.087Z,99102.23
2019-01-27T00:06:21.680Z,99099.89
2019-01-27T00:18:08.584Z,99088.68
2019-01-27T00:25:50.006Z,99060.22
2019-01-27T00:29:15.683Z,99054.19
2019-01-27T00:32:43.861Z,99050.91
2019-01-27T00:36:09.477Z,99044.88
2019-01-27T00:39:35.113Z,99028.08
2019-01-27T00:43:00.760Z,99027.28
2019-01-27T00:46:26.358Z,99011.19
2019-01-27T00:49:51.908Z,99004.00
2019-01-27T00:53:17.559Z,98996.95
2019-01-27T00:56:43.222Z,98991.00
2019-01-27T01:00:12.157Z,98983.67
2019-01-27T01:03:37.846Z,98969.98
2019-01-27T01:07:03.491Z,98966.30
2019-01-27T01:10:29.136Z,98961.95
2019-01-27T01:13:54.976Z,98953.97
2019-01-27T01:17:20.615Z,98946.50
2019-01-27T01:20:46.312Z,98945.65
2019-01-27T01:24:31.375Z,98938.33
2019-01-27T01:27:56.977Z,98932.25
2019-01-27T01:31:22.660Z,98927.80
2019-01-27T01:34:48.681Z,98927.37
2019-01-27T01:38:14.257Z,98911.52
2019-01-27T01:41:39.862Z,98898.08
2019-01-27T01:45:08.912Z,98893.42
2019-01-27T01:48:34.608Z,98884.52
2019-01-27T01:52:00.189Z,98878.27
2019-01-27T01:55:26.243Z,98869.73
2019-01-27T01:58:51.930Z,98868.38
2019-01-27T02:02:17.542Z,98862.75
2019-01-27T02:05:43.175Z,98858.70
2019-01-27T02:09:11.489Z,98847.33
2019-01-27T02:12:37.198Z,98846.89
2019-01-27T02:16:09.022Z,98834.30
2019-01-27T02:19:34.606Z,98830.64
2019-01-27T02:23:07.358Z,98819.77
2019-01-27T02:26:35.305Z,98811.31
2019-01-27T02:30:00.893Z,98797.17
2019-01-27T02:33:26.508Z,98795.64
2019-01-27T02:36:52.114Z,98787.75
2019-01-27T02:40:18.067Z,98785.05
2019-01-27T02:43:43.700Z,98771.16
2019-01-27T02:47:09.327Z,98760.35
2019-01-27T02:50:34.959Z,98768.06
2019-01-27T02:54:03.635Z,98766.06
2019-01-27T02:57:29.220Z,98746.75
2019-01-27T03:00:54.870Z,98742.65
2019-01-27T03:04:20.453Z,98736.43
2019-01-27T03:07:46.077Z,98736.26
2019-01-27T03:11:11.642Z,98721.30
2019-01-27T03:14:37.565Z,98713.57
2019-01-27T03:18:03.386Z,98710.49
2019-01-27T03:21:28.976Z,98706.16
2019-01-27T03:24:54.593Z,98699.21
2019-01-27T03:28:20.181Z,98695.92
2019-01-27T03:31:45.763Z,98692.30
2019-01-27T03:35:11.647Z,98684.56
2019-01-27T03:38:37.237Z,98672.37
2019-01-27T03:42:02.869Z,98667.22
2019-01-27T03:45:28.482Z,98664.20
2019-01-27T03:48:54.071Z,98655.11
2019-01-27T03:52:19.635Z,98654.30
2019-01-27T03:55:45.198Z,98651.90
2019-01-27T03:59:10.909Z,98634.90
2019-01-27T04:02:36.523Z,98632.17
2019-01-27T04:06:02.082Z,98618.64
2019-01-27T04:09:27.662Z,98600.36
2019-01-27T04:12:53.266Z,98602.99
2019-01-27T04:16:18.862Z,98594.07
2019-01-27T04:19:44.568Z,98583.59
2019-01-27T04:23:10.158Z,98583.06
2019-01-27T04:26:37.799Z,98575.73
2019-01-27T04:30:03.785Z,98572.77
2019-01-27T04:33:29.373Z,98572.20
2019-01-27T04:37:13.075Z,98568.53
2019-01-27T04:40:39.251Z,98553.25
2019-01-27T04:48:01.149Z,98527.25
2019-01-27T04:51:26.706Z,98535.08
2019-01-27T04:54:52.312Z,98530.19
2019-01-27T04:58:17.942Z,98524.36
2019-01-27T05:01:43.595Z,98527.16
2019-01-27T05:05:10.371Z,98518.02
2019-01-27T05:08:35.951Z,98516.91
2019-01-27T05:12:01.592Z,98515.53
2019-01-27T05:15:27.938Z,98503.61
2019-01-27T05:18:53.535Z,98500.58
2019-01-27T05:22:19.121Z,98498.64
2019-01-27T05:25:44.679Z,98493.05
2019-01-27T05:29:10.287Z,98478.12
2019-01-27T05:32:35.870Z,98472.84
2019-01-27T05:36:01.459Z,98477.88
2019-01-27T05:39:27.062Z,98476.17
2019-01-27T05:42:52.680Z,98472.57
2019-01-27T05:46:18.653Z,98459.05
2019-01-27T05:49:44.347Z,98463.23
2019-01-27T05:53:09.951Z,98456.38
2019-01-27T05:56:35.515Z,98457.16
2019-01-27T06:00:01.245Z,98455.39
2019-01-27T06:03:26.841Z,98446.22
2019-01-27T06:06:52.619Z,98451.63
2019-01-27T06:10:18.210Z,98439.31
2019-01-27T06:13:43.850Z,98435.27
2019-01-27T06:17:09.425Z,98429.68
2019-01-27T06:20:35.375Z,98433.14
2019-01-27T06:28:04.419Z,98419.00
2019-01-27T06:31:49.059Z,98422.33
2019-01-27T06:35:33.918Z,98412.55
2019-01-27T06:43:02.041Z,98397.80
2019-01-27T06:46:46.649Z,98398.41
2019-01-27T06:54:21.110Z,98384.49
2019-01-27T06:58:06.282Z,98376.55
2019-01-27T07:06:32.428Z,98377.22
2019-01-27T07:10:36.119Z,98384.45
2019-01-27T07:18:51.682Z,98368.60
2019-01-27T07:22:44.699Z,98381.41
2019-01-27T07:26:48.226Z,98377.08
2019-01-27T07:35:10.608Z,98371.89
2019-01-27T07:39:14.044Z,98373.05
2019-01-27T07:43:12.745Z,98364.26
2019-01-27T07:47:22.349Z,98358.25
2019-01-27T07:51:45.344Z,98346.58
2019-01-27T07:55:48.835Z,98348.75
2019-01-27T07:59:55.268Z,98348.16
2019-01-27T08:03:51.116Z,98339.39
2019-01-27T08:07:54.881Z,98334.83
2019-01-27T08:11:58.986Z,98343.46
2019-01-27T08:16:02.740Z,98340.97
2019-01-27T08:20:06.186Z,98336.11
2019-01-27T08:24:09.636Z,98331.02
2019-01-27T08:28:13.095Z,98329.20
2019-01-27T08:32:08.137Z,98331.36
2019-01-27T08:36:11.554Z,98337.05
2019-01-27T08:40:12.498Z,98323.06
2019-01-27T08:44:08.841Z,98320.66
2019-01-27T08:51:56.918Z,98313.56
2019-01-27T08:56:00.494Z,98311.93
2019-01-27T08:59:45.144Z,98310.73
2019-01-27T09:07:39.589Z,98316.81
2019-01-27T09:11:43.041Z,98318.02
2019-01-27T09:15:46.500Z,98306.02
2019-01-27T09:19:50.265Z,98308.67
2019-01-27T09:23:53.752Z,98306.86
2019-01-27T09:27:55.059Z,98312.50
2019-01-27T09:31:58.635Z,98295.55
2019-01-27T09:36:02.249Z,98304.97
2019-01-27T09:40:05.922Z,98296.02
2019-01-27T09:44:02.144Z,98294.91
2019-01-27T09:48:05.791Z,98291.39
2019-01-27T09:52:09.264Z,98288.88
2019-01-27T09:56:12.718Z,98285.63
2019-01-27T10:00:02.831Z,98293.31
2019-01-27T10:04:06.725Z,98284.02
2019-01-27T10:08:10.276Z,98295.59
2019-01-27T10:12:13.761Z,98293.28
2019-01-27T10:16:17.264Z,98304.06
2019-01-27T10:20:11.750Z,98286.03
2019-01-27T10:24:15.438Z,98288.92
2019-01-27T10:28:18.422Z,98287.86
2019-01-27T10:36:18.479Z,98293.36
2019-01-27T10:40:22.212Z,98276.25
2019-01-27T10:44:21.010Z,98272.06
2019-01-27T12:45:52.264Z,98184.05
2019-01-27T12:49:36.959Z,98192.37
2019-01-27T12:53:21.582Z,98182.48
2019-01-27T12:57:06.604Z,98184.38
2019-01-27T13:00:55.112Z,98179.12
2019-01-27T13:04:39.719Z,98193.52
2019-01-27T13:08:25.902Z,98179.87
2019-01-27T13:12:10.746Z,98189.09
2019-01-27T13:15:55.394Z,98188.70
2019-01-27T13:19:40.308Z,98189.25
2019-01-27T13:27:28.712Z,98187.16
2019-01-27T13:31:32.162Z,98187.45
2019-01-27T13:35:17.234Z,98190.49
2019-01-27T13:39:02.165Z,98184.55
2019-01-27T13:43:05.610Z,98189.38
2019-01-27T13:46:31.246Z,98195.00
2019-01-27T13:50:16.101Z,98197.95
2019-01-27T13:54:00.726Z,98197.69
2019-01-27T13:57:46.116Z,98190.89
2019-01-27T14:01:30.786Z,98199.38
2019-01-27T14:05:15.471Z,98197.02
2019-01-27T14:09:00.138Z,98195.39
2019-01-27T14:13:03.642Z,98197.84
2019-01-27T14:16:48.389Z,98198.67
2019-01-27T14:20:33.186Z,98194.13
2019-01-27T14:24:17.890Z,98194.23
2019-01-27T14:28:21.629Z,98206.89
2019-01-27T14:32:06.258Z,98210.83
2019-01-27T14:35:50.885Z,98209.98
2019-01-27T14:39:35.536Z,98214.62
2019-01-27T14:43:12.664Z,98231.54
2019-01-27T14:46:57.353Z,98245.18
2019-01-27T14:50:45.040Z,98248.02
2019-01-27T14:54:29.702Z,98250.19
2019-01-27T14:58:14.377Z,98257.22
2019-01-27T15:01:59.073Z,98261.45
2019-01-27T15:06:04.082Z,98274.52
2019-01-27T15:09:29.719Z,98292.72
2019-01-27T15:13:14.340Z,98289.03
2019-01-27T15:16:59.026Z,98313.83
2019-01-27T15:20:38.168Z,98322.02
2019-01-27T15:24:22.885Z,98327.80
2019-01-27T15:28:07.476Z,98334.70
2019-01-27T15:31:33.352Z,98344.74
2019-01-27T15:35:18.002Z,98355.27
2019-01-27T15:39:03.035Z,98363.73
2019-01-27T15:42:47.666Z,98370.70
2019-01-27T15:46:32.322Z,98382.05
2019-01-27T15:50:19.239Z,98390.87
2019-01-27T15:54:04.071Z,98398.43
2019-01-27T15:57:49.375Z,98398.78
2019-01-27T16:01:34.065Z,98409.63
2019-01-27T16:05:19.842Z,98415.95
2019-01-27T16:09:06.064Z,98424.75
2019-01-27T16:16:40.490Z,98457.47
2019-01-27T16:20:17.659Z,98458.38
2019-01-27T16:27:55.475Z,98471.36
2019-01-27T16:31:47.813Z,98478.77
2019-01-27T16:39:22.881Z,98496.27
2019-01-27T16:42:59.761Z,98502.75
2019-01-27T16:46:44.486Z,98508.05
2019-01-27T16:50:29.249Z,98508.27
2019-01-27T16:54:13.912Z,98513.21
2019-01-27T16:57:58.570Z,98513.56
2019-01-27T17:01:43.223Z,98523.62
2019-01-27T17:05:27.937Z,98528.34
2019-01-27T17:13:02.609Z,98542.72
2019-01-27T17:20:43.758Z,98558.60
2019-01-27T17:36:18.537Z,98561.84
2019-01-27T17:40:03.272Z,98575.84
2019-01-27T17:44:06.731Z,98577.56
2019-01-27T17:48:10.166Z,98582.41
2019-01-27T17:51:55.030Z,98574.19
2019-01-27T17:55:43.356Z,98585.70
2019-01-27T17:59:34.278Z,98603.50
2019-01-27T18:03:37.732Z,98595.77
2019-01-27T18:07:41.275Z,98615.38
2019-01-27T18:11:30.447Z,98619.12
2019-01-27T18:15:34.685Z,98629.45
2019-01-27T18:19:20.352Z,98637.20
2019-01-27T18:23:05.263Z,98629.16
2019-01-27T18:26:49.283Z,98637.78
2019-01-27T18:30:33.944Z,98654.62
2019-01-27T18:34:18.582Z,98657.92
2019-01-27T18:37:44.100Z,98659.48
2019-01-27T18:41:09.707Z,98662.55
2019-01-27T18:44:35.395Z,98659.83
2019-01-27T18:48:20.024Z,98664.40
2019-01-27T18:51:45.626Z,98671.24
2019-01-27T18:55:30.436Z,98669.83
2019-01-27T18:59:34.209Z,98674.92
2019-01-27T19:03:46.415Z,98676.64
2019-01-27T19:07:30.916Z,98680.75
2019-01-27T19:11:15.396Z,98681.98
2019-01-27T19:14:58.521Z,98681.11
2019-01-27T19:18:41.812Z,98673.95
2019-01-27T19:22:32.393Z,98675.91
2019-01-27T19:26:05.373Z,98689.73
2019-01-27T19:29:53.209Z,98690.47
2019-01-27T19:33:37.818Z,98701.91
2019-01-27T19:37:10.694Z,98699.73
2019-01-27T19:40:55.491Z,98695.59
2019-01-27T19:44:27.417Z,98700.69
2019-01-27T19:48:14.689Z,98708.78
2019-01-27T19:52:11.171Z,98706.09
2019-01-27T19:56:02.191Z,98711.86
2019-01-27T19:59:49.557Z,98716.23
2019-01-27T20:03:31.049Z,98717.28
2019-01-27T20:07:18.376Z,98719.31
2019-01-27T20:11:01.194Z,98743.02
2019-01-27T20:14:51.774Z,98727.47
2019-01-27T20:18:25.523Z,98737.25
2019-01-27T20:22:01.604Z,98737.47
2019-01-27T20:25:50.943Z,98736.19
2019-01-27T20:29:31.870Z,98727.66
2019-01-27T20:33:14.964Z,98736.33
2019-01-27T20:37:02.643Z,98733.19
2019-01-27T20:40:47.101Z,98738.28
2019-01-27T20:44:17.242Z,98730.41
2019-01-27T20:47:58.831Z,98731.40
2019-01-27T20:51:43.395Z,98737.44
2019-01-27T20:55:28.641Z,98736.71
2019-01-27T20:59:07.955Z,98730.61
2019-01-27T21:02:51.364Z,98720.98
2019-01-27T21:06:32.540Z,98727.48
2019-01-27T21:10:20.070Z,98729.22
2019-01-27T21:14:05.422Z,98730.80
2019-01-27T21:17:49.863Z,98728.88
2019-01-27T21:21:15.721Z,98734.41
2019-01-27T21:24:41.527Z,98726.45
2019-01-27T21:28:10.839Z,98732.69
2019-01-27T21:31:36.548Z,98726.78
2019-01-27T21:35:02.153Z,98727.58
2019-01-27T21:38:27.772Z,98720.12
2019-01-27T21:41:53.384Z,98722.66
2019-01-27T21:45:19.219Z,98724.42
2019-01-27T21:48:49.193Z,98725.45
2019-01-27T21:52:12.354Z,98714.97
2019-01-27T21:55:41.700Z,98724.92
2019-01-27T21:59:07.328Z,98715.67
2019-01-27T22:02:32.933Z,98704.63
2019-01-27T22:05:58.525Z,98712.18
2019-01-27T22:09:24.099Z,98709.48
2019-01-27T22:12:49.718Z,98711.16
2019-01-27T22:16:15.406Z,98717.84
2019-01-27T22:19:41.019Z,98711.63
2019-01-27T22:23:08.155Z,98705.95
2019-01-27T22:26:33.877Z,98705.89
2019-01-27T22:29:59.548Z,98697.89
2019-01-27T22:33:25.207Z,98698.25
2019-01-27T22:36:50.857Z,98712.23
2019-01-27T22:40:17.458Z,98696.50
2019-01-27T22:43:43.129Z,98705.45
2019-01-27T22:47:08.776Z,98703.47
2019-01-27T22:50:34.490Z,98704.41
2019-01-27T22:54:00.213Z,98691.27
2019-01-27T22:57:25.866Z,98687.34
2019-01-27T23:01:10.092Z,98698.28
2019-01-27T23:04:35.920Z,98678.02
2019-01-27T23:08:01.518Z,98689.22
2019-01-27T23:11:28.745Z,98688.33
2019-01-27T23:14:54.500Z,98695.69
2019-01-27T23:18:20.239Z,98681.56
2019-01-27T23:21:45.947Z,98684.41
2019-01-27T23:25:11.542Z,98693.88
2019-01-27T23:28:37.310Z,98682.63
2019-01-27T23:32:02.985Z,98680.81
2019-01-27T23:35:31.465Z,98680.06
2019-01-27T23:38:58.183Z,98679.83
2019-01-27T23:42:23.806Z,98676.80
2019-01-27T23:45:49.433Z,98676.59
2019-01-27T23:49:15.117Z,98685.10
2019-01-27T23:52:40.989Z,98667.91
2019-01-27T23:56:06.605Z,98671.25
2019-01-27T23:59:32.308Z,98671.30
